Time;durP1;ratioP1;P1;durP2;ratioP2;P2;SDS_P1;SDS_P2;PMS_P1;PMS_P2;Temp;Humidity;BMP_temperature;BMP_pressure;BME280_temperature;BME280_humidity;BME280_pressure;Samples;Min_cycle;Max_cycle;Signal;HPM_P1;HPM_P2
2021/07/12 00:04:59;;;;;;;;;;;;;;;26.58;48.19;101163.00;5110847;27;96581;-90
2021/07/12 00:15:37;;;;;;;;;;;;;;;26.26;49.65;101167.09;5084340;27;96397;-89
2021/07/12 00:18:13;;;;;;;;;;;;;;;26.13;49.43;101165.50;5088837;27;100006;-88
2021/07/12 00:20:40;;;;;;;;;;;;;;;26.35;48.82;101161.66;5089275;27;97870;-88
2021/07/12 00:23:13;;;;;;;;;;;;;;;26.29;49.13;101164.97;5107273;27;96474;-89
2021/07/12 00:25:45;;;;;;;;;;;;;;;26.11;49.83;101172.09;5090060;27;96568;-89
2021/07/12 00:28:12;;;;;;;;;;;;;;;25.86;50.70;101169.97;5089220;27;98329;-87
2021/07/12 00:30:41;;;;;;;;;;;;;;;26.00;50.12;101164.09;5096018;27;100907;-89
2021/07/12 00:33:11;;;;;;;;;;;;;;;25.81;50.29;101162.25;5065571;27;96533;-88
2021/07/12 00:35:44;;;;;;;;;;;;;;;26.07;49.77;101154.41;5089917;27;96103;-90
2021/07/12 00:41:26;;;;;;;;;;;;;;;26.06;49.92;101166.22;5182438;27;96434;-91
2021/07/12 00:43:54;;;;;;;;;;;;;;;26.12;50.04;101162.97;5276327;22;98644;-92
2021/07/12 00:46:22;;;;;;;;;;;;;;;26.12;49.87;101157.56;5094077;27;98948;-92
2021/07/12 00:48:49;;;;;;;;;;;;;;;26.07;50.14;101160.69;5089865;27;99232;-92
2021/07/12 00:51:25;;;;;;;;;;;;;;;26.02;50.83;101149.44;5088256;27;96511;-93
2021/07/12 00:53:53;;;;;;;;;;;;;;;26.04;50.46;101158.28;5082032;27;96767;-92
2021/07/12 00:56:20;;;;;;;;;;;;;;;26.02;50.52;101154.00;5075315;27;99571;-91
2021/07/12 01:07:13;;;;;;;;;;;;;;;25.96;50.53;101154.56;5081817;27;96934;-92
2021/07/12 01:09:44;;;;;;;;;;;;;;;26.23;49.98;101160.09;5083979;27;98665;-91
2021/07/12 01:12:24;;;;;;;;;;;;;;;26.00;50.95;101155.97;5085518;27;96672;-91
2021/07/12 01:15:06;;;;;;;;;;;;;;;26.01;50.50;101152.28;5084256;27;96830;-94
2021/07/12 01:20:46;;;;;;;;;;;;;;;25.95;51.13;101147.44;5083999;27;97756;-92
2021/07/12 01:23:35;;;;;;;;;;;;;;;25.98;50.99;101155.28;5084829;27;96516;-93
2021/07/12 01:26:20;;;;;;;;;;;;;;;26.01;50.98;101154.97;5079103;27;96253;-94
2021/07/12 01:37:54;;;;;;;;;;;;;;;25.70;52.38;101148.88;5078837;27;96547;-93
2021/07/12 01:43:13;;;;;;;;;;;;;;;26.09;51.11;101147.00;5061612;27;99832;-92
2021/07/12 01:48:31;;;;;;;;;;;;;;;25.99;51.11;101138.88;5087458;27;96854;-89
2021/07/12 01:51:02;;;;;;;;;;;;;;;26.01;51.31;101136.03;5082871;27;97816;-89
2021/07/12 01:53:33;;;;;;;;;;;;;;;25.96;51.40;101131.06;5073462;27;98956;-89
2021/07/12 01:56:01;;;;;;;;;;;;;;;25.90;51.54;101133.47;5079906;27;96664;-90
2021/07/12 01:58:36;;;;;;;;;;;;;;;26.00;50.96;101137.88;5082147;27;97767;-89
2021/07/12 02:01:13;;;;;;;;;;;;;;;26.09;50.88;101133.47;5065967;27;97949;-90
2021/07/12 02:06:24;;;;;;;;;;;;;;;25.86;51.10;101129.38;5061517;27;96921;-91
2021/07/12 02:08:56;;;;;;;;;;;;;;;25.80;51.46;101131.63;5047421;28;96621;-90
2021/07/12 02:11:23;;;;;;;;;;;;;;;25.74;51.65;101129.50;5048982;27;98122;-91
2021/07/12 02:13:55;;;;;;;;;;;;;;;26.08;50.66;101126.31;5046416;28;101202;-90
2021/07/12 02:16:23;;;;;;;;;;;;;;;25.84;51.47;101126.78;5067434;27;96801;-89
2021/07/12 02:21:36;;;;;;;;;;;;;;;25.94;50.94;101124.06;5060566;27;98862;-91
2021/07/12 02:24:05;;;;;;;;;;;;;;;25.93;51.06;101116.97;5065416;27;99329;-91
2021/07/12 02:29:15;;;;;;;;;;;;;;;26.01;50.66;101109.81;5083458;27;96596;-90
2021/07/12 02:31:43;;;;;;;;;;;;;;;26.11;50.45;101112.50;5063401;27;99256;-89
2021/07/12 02:34:15;;;;;;;;;;;;;;;25.92;50.97;101101.72;5065654;27;99232;-90
2021/07/12 02:36:56;;;;;;;;;;;;;;;26.08;50.73;101101.97;5069911;27;96638;-91
2021/07/12 02:42:06;;;;;;;;;;;;;;;25.98;50.93;101095.72;5065556;27;98179;-89
2021/07/12 02:44:34;;;;;;;;;;;;;;;26.00;50.79;101086.44;5065189;27;97699;-88
2021/07/12 02:47:00;;;;;;;;;;;;;;;25.91;51.58;101091.88;5073260;27;96454;-89
2021/07/12 02:49:29;;;;;;;;;;;;;;;25.42;52.75;101083.75;5055030;28;96709;-89
2021/07/12 02:52:02;;;;;;;;;;;;;;;25.61;52.16;101085.63;5078658;27;99338;-90
2021/07/12 02:54:30;;;;;;;;;;;;;;;25.90;51.60;101091.03;5071783;27;100375;-90
2021/07/12 02:57:00;;;;;;;;;;;;;;;25.96;51.66;101086.88;5073728;27;96717;-89
2021/07/12 02:59:27;;;;;;;;;;;;;;;25.77;52.27;101090.47;5068061;27;96888;-90
2021/07/12 03:01:54;;;;;;;;;;;;;;;25.89;52.54;101091.16;5065442;27;99162;-90
2021/07/12 03:04:23;;;;;;;;;;;;;;;25.84;52.69;101085.34;5064845;27;96756;-90
2021/07/12 03:09:40;;;;;;;;;;;;;;;25.67;52.99;101084.19;5073897;27;96734;-89
2021/07/12 03:12:09;;;;;;;;;;;;;;;25.61;53.52;101088.34;5066464;27;99062;-90
2021/07/12 03:17:25;;;;;;;;;;;;;;;25.55;53.61;101094.28;5104852;27;97066;-89
2021/07/12 03:19:55;;;;;;;;;;;;;;;25.67;53.29;101095.88;5093712;27;96465;-88
2021/07/12 03:22:25;;;;;;;;;;;;;;;25.73;53.27;101095.31;5078889;27;97006;-91
2021/07/12 03:24:59;;;;;;;;;;;;;;;26.00;51.91;101099.97;5083026;27;97827;-90
2021/07/12 03:32:55;;;;;;;;;;;;;;;25.94;52.79;101100.56;5075369;27;98562;-91
2021/07/12 03:35:22;;;;;;;;;;;;;;;25.87;52.82;101098.56;5066348;27;98974;-90
2021/07/12 03:38:18;;;;;;;;;;;;;;;25.92;52.10;101093.59;5063830;27;96667;-91
2021/07/12 03:41:01;;;;;;;;;;;;;;;26.17;51.48;101087.56;5061462;27;96572;-90
2021/07/12 03:43:43;;;;;;;;;;;;;;;26.23;51.38;101092.38;5063963;27;99514;-92
2021/07/12 03:46:19;;;;;;;;;;;;;;;26.16;51.05;101096.69;5083118;27;96740;-90
2021/07/12 03:48:49;;;;;;;;;;;;;;;26.14;51.20;101093.25;5085992;27;96702;-91
2021/07/12 03:51:16;;;;;;;;;;;;;;;26.25;51.02;101089.56;5085457;27;96870;-90
2021/07/12 03:53:45;;;;;;;;;;;;;;;26.11;51.31;101085.44;5091039;27;99241;-89
2021/07/12 03:58:53;;;;;;;;;;;;;;;26.21;50.90;101078.13;5088181;27;96635;-90
2021/07/12 04:01:22;;;;;;;;;;;;;;;26.19;51.01;101074.69;5068395;27;96676;-89
2021/07/12 04:03:51;;;;;;;;;;;;;;;26.09;51.42;101080.16;5082876;27;98159;-88
2021/07/12 04:09:24;;;;;;;;;;;;;;;25.87;51.56;101066.94;5112305;27;97488;-88
2021/07/12 04:11:55;;;;;;;;;;;;;;;26.01;51.50;101066.47;5100694;27;96156;-88
2021/07/12 04:14:22;;;;;;;;;;;;;;;25.78;52.21;101065.97;5099659;27;99186;-89
2021/07/12 04:16:50;;;;;;;;;;;;;;;25.82;52.44;101071.94;5098725;27;99023;-89
2021/07/12 04:19:18;;;;;;;;;;;;;;;25.93;52.72;101068.22;5100463;27;96887;-89
2021/07/12 04:21:44;;;;;;;;;;;;;;;25.98;52.81;101076.78;5113872;27;96791;-88
2021/07/12 04:24:13;;;;;;;;;;;;;;;25.79;53.36;101078.50;5110221;27;99284;-88
2021/07/12 04:26:41;;;;;;;;;;;;;;;25.84;52.73;101085.34;5116002;27;96887;-90
2021/07/12 04:29:09;;;;;;;;;;;;;;;25.79;52.91;101083.94;5099912;27;98864;-89
2021/07/12 04:34:16;;;;;;;;;;;;;;;25.63;53.29;101091.75;5087176;27;99590;-89
2021/07/12 04:36:43;;;;;;;;;;;;;;;25.44;53.58;101091.72;5100440;27;98815;-91
2021/07/12 04:39:13;;;;;;;;;;;;;;;25.54;53.99;101089.00;5088596;27;96784;-89
2021/07/12 04:41:42;;;;;;;;;;;;;;;25.42;53.84;101101.81;5099299;27;96997;-90
2021/07/12 04:44:08;;;;;;;;;;;;;;;25.66;53.43;101093.34;5112721;27;99287;-90
2021/07/12 04:46:39;;;;;;;;;;;;;;;25.48;53.45;101103.97;5123429;27;100330;-90
2021/07/12 04:49:07;;;;;;;;;;;;;;;25.67;53.33;101095.88;5102627;27;96762;-89
2021/07/12 04:51:35;;;;;;;;;;;;;;;25.67;53.20;101098.59;5104890;27;96872;-90
2021/07/12 04:54:02;;;;;;;;;;;;;;;25.72;52.95;101095.47;5101403;27;99489;-90
2021/07/12 04:56:29;;;;;;;;;;;;;;;25.95;52.26;101093.28;5102748;27;97602;-90
2021/07/12 04:58:59;;;;;;;;;;;;;;;26.06;52.02;101093.97;5110351;27;96747;-91
2021/07/12 05:01:32;;;;;;;;;;;;;;;26.00;52.33;101091.00;5092577;27;96796;-90
2021/07/12 05:03:59;;;;;;;;;;;;;;;25.96;52.04;101090.44;5102168;27;98358;-89
2021/07/12 05:09:08;;;;;;;;;;;;;;;26.29;51.31;101094.53;5102576;27;96656;-91
2021/07/12 05:11:44;;;;;;;;;;;;;;;26.22;51.55;101087.97;5104740;27;96703;-92
2021/07/12 05:14:25;;;;;;;;;;;;;;;26.32;51.18;101082.56;5107961;27;97788;-88
2021/07/12 05:16:54;;;;;;;;;;;;;;;26.18;51.46;101075.72;5102827;27;99316;-91
2021/07/12 05:19:22;;;;;;;;;;;;;;;26.10;51.81;101073.75;5096957;27;96683;-91
2021/07/12 05:24:32;;;;;;;;;;;;;;;26.29;51.34;101072.88;5099810;27;97963;-89
2021/07/12 05:27:00;;;;;;;;;;;;;;;26.39;51.45;101079.09;5095289;27;98827;-91
2021/07/12 05:29:32;;;;;;;;;;;;;;;26.35;51.60;101077.69;5091824;27;96691;-90
2021/07/12 05:34:44;;;;;;;;;;;;;;;26.28;51.36;101084.69;5073038;27;97979;-90
2021/07/12 05:37:11;;;;;;;;;;;;;;;26.21;51.95;101083.53;5074958;27;97921;-92
2021/07/12 05:39:38;;;;;;;;;;;;;;;26.30;51.67;101080.00;5069482;27;96554;-89
2021/07/12 05:42:07;;;;;;;;;;;;;;;26.34;51.46;101089.53;5081838;27;96668;-91
2021/07/12 05:44:38;;;;;;;;;;;;;;;26.35;51.68;101090.38;5085097;27;98281;-91
2021/07/12 05:47:05;;;;;;;;;;;;;;;26.53;51.36;101086.72;5088885;27;97689;-90
2021/07/12 05:49:34;;;;;;;;;;;;;;;26.43;51.53;101088.66;5095713;27;96705;-90
2021/07/12 05:54:43;;;;;;;;;;;;;;;26.58;50.66;101078.19;5099990;27;99778;-90
2021/07/12 05:57:09;;;;;;;;;;;;;;;26.51;51.18;101068.94;5104853;27;100766;-91
2021/07/12 05:59:47;;;;;;;;;;;;;;;26.40;51.28;101066.41;5103925;27;96757;-92
2021/07/12 06:05:13;;;;;;;;;;;;;;;26.39;51.11;101064.69;5142949;27;96549;-91
2021/07/12 06:07:41;;;;;;;;;;;;;;;26.51;50.81;101067.09;5135414;27;96617;-91
2021/07/12 06:10:11;;;;;;;;;;;;;;;26.46;51.21;101069.38;5125047;27;96808;-92
2021/07/12 06:12:38;;;;;;;;;;;;;;;26.53;51.13;101072.34;5131620;27;98511;-91
2021/07/12 06:15:05;;;;;;;;;;;;;;;26.80;50.29;101075.06;5197549;22;100013;-90
2021/07/12 06:17:32;;;;;;;;;;;;;;;26.63;50.94;101073.16;5079665;27;96741;-88
2021/07/12 06:20:01;;;;;;;;;;;;;;;26.80;50.41;101071.47;5072172;27;96843;-91
2021/07/12 06:22:36;;;;;;;;;;;;;;;26.76;50.40;101072.81;5070326;27;100023;-91
2021/07/12 06:27:46;;;;;;;;;;;;;;;26.65;50.86;101075.72;5076154;27;96799;-90
2021/07/12 06:30:14;;;;;;;;;;;;;;;26.62;51.25;101071.44;5066889;27;99200;-91
2021/07/12 06:32:41;;;;;;;;;;;;;;;26.39;51.60;101067.41;5074018;27;96785;-89
2021/07/12 06:35:09;;;;;;;;;;;;;;;26.06;52.16;101071.44;5052224;27;96897;-91
2021/07/12 06:37:38;;;;;;;;;;;;;;;26.09;52.59;101066.63;5070108;27;96780;-91
2021/07/12 06:40:06;;;;;;;;;;;;;;;25.98;52.54;101076.78;5070700;27;98615;-88
2021/07/12 06:42:34;;;;;;;;;;;;;;;26.13;52.68;101075.28;5078147;27;99537;-89
2021/07/12 06:45:01;;;;;;;;;;;;;;;26.07;54.06;101068.59;5078137;27;96481;-90
2021/07/12 06:47:29;;;;;;;;;;;;;;;26.31;53.64;101070.88;5061079;27;96462;-88
2021/07/12 06:49:59;;;;;;;;;;;;;;;26.72;53.16;101066.81;5075109;27;99223;-90
2021/07/12 06:52:27;;;;;;;;;;;;;;;26.74;54.34;101066.66;5073772;27;99282;-86
2021/07/12 06:58:11;;;;;;;;;;;;;;;27.87;50.27;101054.28;5062344;27;97262;-88
2021/07/12 07:00:39;;;;;;;;;;;;;;;28.79;48.25;101053.66;5065517;27;97792;-88
2021/07/12 07:03:10;;;;;;;;;;;;;;;28.93;46.93;101058.47;5051567;27;99213;-91
2021/07/12 07:08:32;;;;;;;;;;;;;;;28.31;48.22;101057.81;5082181;27;96997;-89
2021/07/12 07:13:39;;;;;;;;;;;;;;;28.11;48.83;101059.03;5078328;27;98340;-91
2021/07/12 07:16:21;;;;;;;;;;;;;;;28.31;48.25;101062.41;5074065;27;96340;-88
2021/07/12 07:18:57;;;;;;;;;;;;;;;27.98;49.15;101050.44;5045467;27;97717;-85
2021/07/12 07:21:24;;;;;;;;;;;;;;;28.28;48.44;101055.44;5049816;27;96843;-91
2021/07/12 07:23:54;;;;;;;;;;;;;;;28.60;47.75;101053.91;5059427;27;97477;-89
2021/07/12 07:26:20;;;;;;;;;;;;;;;28.28;48.11;101051.88;5060716;27;96521;-89
2021/07/12 07:31:27;;;;;;;;;;;;;;;28.49;46.83;101052.31;5057081;27;98819;-89
2021/07/12 07:34:14;;;;;;;;;;;;;;;28.12;47.59;101048.00;5064461;27;99353;-90
2021/07/12 07:39:47;;;;;;;;;;;;;;;27.45;49.16;101040.50;5056120;27;96540;-87
2021/07/12 07:48:05;;;;;;;;;;;;;;;28.43;46.49;101033.94;5035269;27;95902;-90
2021/07/12 07:53:40;;;;;;;;;;;;;;;28.57;45.70;101032.47;5035504;27;96469;-88
2021/07/12 07:56:08;;;;;;;;;;;;;;;28.45;46.19;101037.34;5052813;27;96924;-87
2021/07/12 08:03:39;;;;;;;;;;;;;;;28.92;44.84;101027.69;5131911;22;97609;-88
2021/07/12 08:06:17;;;;;;;;;;;;;;;28.89;44.84;101017.13;5065656;27;96382;-86
2021/07/12 08:17:34;;;;;;;;;;;;;;;29.36;43.33;101004.81;5066855;27;96232;-88
2021/07/12 08:23:15;;;;;;;;;;;;;;;27.75;47.19;101006.69;5072672;27;96128;-88
2021/07/12 08:31:25;;;;;;;;;;;;;;;29.93;41.99;100992.88;5082630;27;96045;-87
2021/07/12 08:33:52;;;;;;;;;;;;;;;30.54;40.51;100993.19;5075504;27;96053;-92
2021/07/12 08:41:36;;;;;;;;;;;;;;;30.57;40.39;100992.88;5212457;22;100019;-87
2021/07/12 08:44:07;;;;;;;;;;;;;;;29.73;41.70;100985.25;5104144;27;97410;-83
2021/07/12 08:46:36;;;;;;;;;;;;;;;30.33;40.69;100989.16;5083686;27;97653;-93
2021/07/12 09:00:14;;;;;;;;;;;;;;;31.19;38.75;100978.16;5091500;27;96455;-93
2021/07/12 09:11:44;;;;;;;;;;;;;;;29.76;41.62;100969.41;5082780;27;97513;-92
2021/07/12 09:14:12;;;;;;;;;;;;;;;30.22;40.76;100970.47;5100504;27;96575;-94
2021/07/12 09:22:49;;;;;;;;;;;;;;;29.51;41.85;100965.00;5080398;27;96705;-90
2021/07/12 09:28:27;;;;;;;;;;;;;;;30.86;39.17;100973.94;5034854;28;97478;-89
2021/07/12 09:31:11;;;;;;;;;;;;;;;31.56;38.18;100976.50;5025040;27;97980;-94
2021/07/12 09:39:40;;;;;;;;;;;;;;;31.11;38.21;100966.47;5038836;28;96016;-93
2021/07/12 09:47:49;;;;;;;;;;;;;;;31.14;37.86;100957.91;5060015;27;96000;-91
2021/07/12 10:08:41;;;;;;;;;;;;;;;31.70;36.98;100961.19;5060065;27;96431;-87
2021/07/12 10:11:09;;;;;;;;;;;;;;;31.86;36.43;100945.47;5061519;27;97091;-90
2021/07/12 10:13:37;;;;;;;;;;;;;;;31.02;38.19;100948.41;5045863;27;97209;-91
2021/07/12 10:16:08;;;;;;;;;;;;;;;31.27;37.81;100942.59;5052988;27;96648;-91
2021/07/12 10:26:45;;;;;;;;;;;;;;;31.30;37.23;100927.75;5093788;22;98996;-89
2021/07/12 10:29:17;;;;;;;;;;;;;;;30.83;37.91;100925.19;5061489;27;96466;-89
2021/07/12 10:32:06;;;;;;;;;;;;;;;30.28;40.13;100926.16;5057969;27;96039;-88
2021/07/12 10:34:39;;;;;;;;;;;;;;;30.45;39.95;100925.06;5037372;28;99973;-91
2021/07/12 10:37:16;;;;;;;;;;;;;;;30.91;38.67;100921.56;5021597;28;96685;-91
2021/07/12 10:42:11;;;;;;;;;;;;;;;31.25;37.80;100917.38;5050179;27;97200;-91
2021/07/12 10:47:48;;;;;;;;;;;;;;;31.73;36.69;100903.44;5053489;27;98984;-84
2021/07/12 10:53:36;;;;;;;;;;;;;;;31.33;37.44;100901.94;5049694;27;96745;-90
2021/07/12 10:56:16;;;;;;;;;;;;;;;31.82;37.03;100899.59;5058129;27;97255;-90
2021/07/12 10:59:08;;;;;;;;;;;;;;;31.81;37.34;100901.47;5062913;27;98703;-87
2021/07/12 11:01:43;;;;;;;;;;;;;;;31.60;37.41;100907.69;5063955;27;96207;-86
2021/07/12 11:04:40;;;;;;;;;;;;;;;31.36;37.46;100899.72;5053508;27;96808;-88
2021/07/12 11:07:09;;;;;;;;;;;;;;;31.78;37.38;100901.00;4973379;28;98892;-85
2021/07/12 11:12:53;;;;;;;;;;;;;;;32.61;36.17;100895.16;5038549;27;96685;-89
2021/07/12 11:18:27;;;;;;;;;;;;;;;31.74;37.23;100899.69;5046920;28;98812;-89
2021/07/12 11:26:56;;;;;;;;;;;;;;;31.70;37.65;100890.19;5051516;27;96924;-88
2021/07/12 11:37:50;;;;;;;;;;;;;;;32.05;36.87;100884.78;5051930;27;96982;-91
2021/07/12 11:42:59;;;;;;;;;;;;;;;31.96;37.07;100883.19;5032900;28;96601;-91
2021/07/12 11:45:32;;;;;;;;;;;;;;;31.92;37.88;100884.59;5046843;27;97233;-91
2021/07/12 11:48:09;;;;;;;;;;;;;;;31.81;38.64;100882.34;5048738;27;96746;-89
2021/07/12 11:50:39;;;;;;;;;;;;;;;31.36;39.17;100879.75;5041699;27;100322;-89
2021/07/12 11:53:20;;;;;;;;;;;;;;;30.89;40.18;100881.66;5050980;27;100281;-90
2021/07/12 11:58:48;;;;;;;;;;;;;;;31.95;37.83;100878.75;5058703;27;97325;-89
2021/07/12 12:01:20;;;;;;;;;;;;;;;32.03;38.26;100881.38;5034957;28;98495;-87
2021/07/12 12:03:47;;;;;;;;;;;;;;;31.85;38.55;100878.19;5049787;27;98103;-89
2021/07/12 12:06:27;;;;;;;;;;;;;;;31.56;39.13;100873.56;5054551;28;95968;-87
2021/07/12 12:09:04;;;;;;;;;;;;;;;31.96;38.61;100863.22;5039939;28;96138;-91
2021/07/12 12:11:36;;;;;;;;;;;;;;;32.30;37.94;100859.84;5038147;27;96994;-89
2021/07/12 12:22:33;;;;;;;;;;;;;;;31.89;38.12;100854.94;5051035;27;96534;-86
2021/07/12 12:25:01;;;;;;;;;;;;;;;31.67;38.84;100859.47;5053548;27;98437;-88
2021/07/12 12:32:55;;;;;;;;;;;;;;;32.46;37.12;100851.44;5058988;27;96764;-89
2021/07/12 12:35:33;;;;;;;;;;;;;;;32.02;38.07;100852.38;5052857;28;100335;-87
2021/07/12 12:38:29;;;;;;;;;;;;;;;32.66;36.60;100844.28;5054210;27;96645;-88
2021/07/12 12:41:00;;;;;;;;;;;;;;;32.66;36.04;100849.75;5036248;28;96671;-88
2021/07/12 12:46:10;;;;;;;;;;;;;;;32.85;34.35;100837.31;5054900;22;101179;-90
2021/07/12 12:48:46;;;;;;;;;;;;;;;32.64;34.24;100840.03;5053749;28;97039;-90
2021/07/12 12:51:24;;;;;;;;;;;;;;;32.55;34.21;100831.13;5052369;28;96913;-88
2021/07/12 13:08:18;;;;;;;;;;;;;;;31.98;36.05;100807.31;5051856;27;96379;-87
2021/07/12 13:13:33;;;;;;;;;;;;;;;32.17;35.37;100805.88;5043110;27;96746;-86
2021/07/12 13:22:11;;;;;;;;;;;;;;;32.48;34.47;100793.81;5036848;28;95987;-87
2021/07/12 13:27:29;;;;;;;;;;;;;;;33.84;32.32;100794.22;5044395;27;98977;-85
2021/07/12 13:30:13;;;;;;;;;;;;;;;34.01;32.21;100787.31;5035486;28;98672;-88
2021/07/12 13:32:45;;;;;;;;;;;;;;;35.37;29.15;100780.50;5040244;27;96858;-85
2021/07/12 13:35:24;;;;;;;;;;;;;;;35.59;29.13;100779.13;5036615;28;96057;-86
2021/07/12 13:37:56;;;;;;;;;;;;;;;35.90;28.42;100776.53;5036145;27;99174;-87
2021/07/12 13:40:24;;;;;;;;;;;;;;;35.76;28.89;100768.56;5038979;27;97840;-86
2021/07/12 13:42:51;;;;;;;;;;;;;;;36.22;27.78;100773.84;5040043;28;96106;-87
2021/07/12 13:45:19;;;;;;;;;;;;;;;35.85;28.02;100778.22;5040446;28;96887;-86
2021/07/12 13:47:47;;;;;;;;;;;;;;;37.01;26.65;100764.97;5022087;28;96966;-86
2021/07/12 13:50:20;;;;;;;;;;;;;;;37.13;26.78;100765.09;5032260;28;99711;-86
2021/07/12 13:52:48;;;;;;;;;;;;;;;37.78;25.85;100758.00;5030315;28;96749;-87
2021/07/12 13:55:17;;;;;;;;;;;;;;;37.81;26.06;100771.31;5040497;27;96944;-87
2021/07/12 13:57:44;;;;;;;;;;;;;;;37.28;26.83;100766.41;5028025;28;101365;-87
2021/07/12 14:00:12;;;;;;;;;;;;;;;37.54;26.03;100758.91;5026216;28;99620;-87
2021/07/12 14:02:41;;;;;;;;;;;;;;;36.89;26.62;100762.09;5035756;28;96730;-86
2021/07/12 14:05:21;;;;;;;;;;;;;;;35.83;28.46;100747.38;5030515;28;96909;-86
2021/07/12 14:10:44;;;;;;;;;;;;;;;34.36;31.23;100753.25;5044254;28;99349;-82
2021/07/12 14:13:12;;;;;;;;;;;;;;;33.65;32.46;100756.56;5036159;28;96602;-90
2021/07/12 14:15:38;;;;;;;;;;;;;;;32.55;34.97;100754.53;5019167;28;96756;-86
2021/07/12 14:18:09;;;;;;;;;;;;;;;32.36;35.71;100747.81;5027007;28;99161;-86
2021/07/12 14:23:48;;;;;;;;;;;;;;;31.21;38.93;100752.28;5029413;28;97453;-87
2021/07/12 14:29:09;;;;;;;;;;;;;;;31.20;40.80;100753.31;5044708;27;99269;-85
2021/07/12 14:31:37;;;;;;;;;;;;;;;30.94;43.09;100752.88;5055949;28;99835;-88
2021/07/12 14:34:04;;;;;;;;;;;;;;;30.29;43.59;100752.56;5060521;27;96553;-86
2021/07/12 14:44:47;;;;;;;;;;;;;;;30.82;41.56;100766.13;5391680;22;101752;-88
2021/07/12 14:55:27;;;;;;;;;;;;;;;30.18;45.18;100759.31;5074191;27;96446;-86
2021/07/12 14:57:57;;;;;;;;;;;;;;;30.06;45.71;100764.31;5073366;27;96588;-86
2021/07/12 15:05:56;;;;;;;;;;;;;;;30.67;43.33;100757.06;5048322;27;96372;-88
2021/07/12 15:08:27;;;;;;;;;;;;;;;30.66;43.64;100749.91;5054456;28;96858;-88
2021/07/12 15:10:53;;;;;;;;;;;;;;;30.66;44.07;100751.78;5032545;28;99034;-88
2021/07/12 15:13:25;;;;;;;;;;;;;;;30.79;42.78;100752.00;5054822;27;96918;-85
2021/07/12 15:15:55;;;;;;;;;;;;;;;31.00;42.46;100752.13;5054889;27;96189;-85
2021/07/12 15:18:22;;;;;;;;;;;;;;;30.92;43.62;100754.13;5051717;27;96825;-87
2021/07/12 15:20:51;;;;;;;;;;;;;;;30.93;43.78;100756.63;5147376;22;100178;-86
2021/07/12 15:23:21;;;;;;;;;;;;;;;30.86;43.96;100756.53;5057171;27;98181;-87
2021/07/12 15:25:49;;;;;;;;;;;;;;;30.88;45.05;100749.00;5036309;27;96932;-84
2021/07/12 15:34:14;;;;;;;;;;;;;;;30.88;43.89;100731.78;5103708;22;97793;-87
2021/07/12 15:39:35;;;;;;;;;;;;;;;30.78;43.10;100743.00;5060736;27;96136;-89
2021/07/12 15:44:47;;;;;;;;;;;;;;;30.69;42.88;100737.78;5051784;27;98563;-89
2021/07/12 16:20:16;;;;;;;;;;;;;;;30.43;46.19;100732.69;5024921;28;96127;-89
2021/07/12 16:22:43;;;;;;;;;;;;;;;30.33;46.21;100727.50;5026212;28;96033;-90
2021/07/12 16:25:23;;;;;;;;;;;;;;;30.15;47.00;100723.38;5004483;28;100503;-87
2021/07/12 16:27:50;;;;;;;;;;;;;;;29.88;48.78;100733.75;5004584;28;97643;-88
2021/07/12 16:30:25;;;;;;;;;;;;;;;29.78;48.12;100726.84;5019667;27;96837;-91
2021/07/12 16:32:55;;;;;;;;;;;;;;;29.98;46.99;100730.84;5014981;28;96437;-87
2021/07/12 16:38:20;;;;;;;;;;;;;;;30.07;45.72;100732.44;5006000;27;96839;-82
2021/07/12 16:43:50;;;;;;;;;;;;;;;30.16;41.34;100745.00;5208430;22;99277;-86
2021/07/12 16:49:05;;;;;;;;;;;;;;;30.61;39.15;100735.97;5055529;27;98846;-86
2021/07/12 16:51:34;;;;;;;;;;;;;;;30.78;38.84;100733.97;5060435;27;97298;-87
2021/07/12 17:02:10;;;;;;;;;;;;;;;31.56;37.16;100717.88;5109708;22;98175;-87
2021/07/12 17:04:38;;;;;;;;;;;;;;;31.63;37.09;100710.66;5047542;27;96990;-88
2021/07/12 17:07:07;;;;;;;;;;;;;;;31.49;37.65;100708.78;5070897;27;97134;-87
2021/07/12 17:09:50;;;;;;;;;;;;;;;31.26;37.66;100717.06;5060700;27;97630;-86
2021/07/12 17:12:20;;;;;;;;;;;;;;;31.06;38.13;100718.66;5053080;27;96722;-87
2021/07/12 17:14:48;;;;;;;;;;;;;;;31.13;39.23;100716.03;5066820;27;96900;-85
2021/07/12 17:17:19;;;;;;;;;;;;;;;30.87;39.71;100708.28;5057452;27;101309;-85
2021/07/12 17:22:34;;;;;;;;;;;;;;;30.49;39.69;100702.88;5109385;22;100630;-84
2021/07/12 17:25:01;;;;;;;;;;;;;;;30.46;40.04;100705.91;5058734;27;96618;-87
2021/07/12 17:30:31;;;;;;;;;;;;;;;30.45;39.90;100717.03;5103479;27;96355;-87
2021/07/12 17:38:23;;;;;;;;;;;;;;;30.57;39.66;100706.53;5102804;27;99202;-87
2021/07/12 17:40:52;;;;;;;;;;;;;;;30.51;39.71;100707.28;5114197;27;96303;-84
2021/07/12 17:43:19;;;;;;;;;;;;;;;30.51;40.23;100701.84;5101955;27;96754;-85
2021/07/12 17:54:34;;;;;;;;;;;;;;;30.08;41.25;100698.72;5067192;22;99987;-85
2021/07/12 17:57:01;;;;;;;;;;;;;;;30.01;41.56;100698.63;4996877;27;99087;-86
2021/07/12 17:59:28;;;;;;;;;;;;;;;29.97;41.42;100693.72;4990479;28;99117;-86
2021/07/12 18:07:24;;;;;;;;;;;;;;;29.58;42.15;100696.47;4992640;28;98559;-90
2021/07/12 18:12:42;;;;;;;;;;;;;;;29.68;42.71;100700.66;4980845;28;96767;-91
2021/07/12 18:15:15;;;;;;;;;;;;;;;29.71;41.98;100702.19;4970630;28;96542;-91
2021/07/12 18:17:47;;;;;;;;;;;;;;;29.49;41.57;100697.53;5014499;22;98173;-89
2021/07/12 18:45:17;;;;;;;;;;;;;;;29.28;41.34;100719.88;5070655;22;96959;-89
2021/07/12 18:50:28;;;;;;;;;;;;;;;29.14;42.10;100723.34;5081023;22;98696;-87
2021/07/12 18:59:06;;;;;;;;;;;;;;;28.89;43.07;100719.81;5019575;28;96731;-89
2021/07/12 19:01:40;;;;;;;;;;;;;;;28.66;43.74;100725.13;5022151;28;97941;-88
2021/07/12 19:04:08;;;;;;;;;;;;;;;28.73;43.93;100733.44;5022969;28;97670;-87
2021/07/12 19:09:17;;;;;;;;;;;;;;;28.77;44.37;100726.66;5174827;22;98951;-87
2021/07/12 19:11:44;;;;;;;;;;;;;;;28.54;44.50;100726.50;5025486;28;96867;-88
2021/07/12 19:17:24;;;;;;;;;;;;;;;28.04;46.08;100726.59;5055314;22;96596;-88
2021/07/12 19:19:56;;;;;;;;;;;;;;;27.94;46.38;100731.34;5075828;27;96966;-86
2021/07/12 19:41:15;;;;;;;;;;;;;;;27.96;46.88;100748.31;5093519;22;97862;-91
2021/07/12 19:49:18;;;;;;;;;;;;;;;27.70;48.24;100751.09;5054616;28;96758;-90
2021/07/12 19:51:51;;;;;;;;;;;;;;;27.84;47.85;100758.63;5047662;27;96401;-90
2021/07/12 19:54:20;;;;;;;;;;;;;;;27.61;48.54;100750.25;5049278;28;98779;-90
2021/07/12 20:03:03;;;;;;;;;;;;;;;27.63;48.57;100752.81;5193900;22;98197;-90
2021/07/12 20:05:35;;;;;;;;;;;;;;;27.61;48.83;100750.25;5060332;28;98748;-88
2021/07/12 20:10:43;;;;;;;;;;;;;;;27.22;50.58;100758.00;5060079;27;96801;-90
2021/07/12 20:13:19;;;;;;;;;;;;;;;27.15;50.73;100759.66;5056010;27;96272;-89
2021/07/12 20:15:46;;;;;;;;;;;;;;;27.32;50.17;100756.03;5062119;27;99384;-88
2021/07/12 20:18:20;;;;;;;;;;;;;;;27.33;50.18;100749.59;5062923;27;98388;-88
2021/07/12 20:20:52;;;;;;;;;;;;;;;27.41;49.79;100753.34;5049243;28;96869;-88
2021/07/12 20:23:25;;;;;;;;;;;;;;;27.15;50.88;100745.25;5058807;27;96699;-88
2021/07/12 20:28:39;;;;;;;;;;;;;;;27.08;50.88;100736.91;5048913;28;99817;-89
2021/07/12 20:31:16;;;;;;;;;;;;;;;27.19;50.71;100741.19;5049996;28;96726;-89
2021/07/12 20:33:47;;;;;;;;;;;;;;;27.04;51.45;100730.13;5052539;27;96685;-90
2021/07/12 20:39:04;;;;;;;;;;;;;;;26.67;53.12;100737.63;5057717;27;96644;-90
2021/07/12 20:44:13;;;;;;;;;;;;;;;26.56;53.59;100738.72;5038454;27;96859;-90
2021/07/12 20:46:40;;;;;;;;;;;;;;;26.22;54.51;100735.84;5050824;28;97762;-90
2021/07/12 20:49:27;;;;;;;;;;;;;;;26.26;54.23;100742.69;5050768;27;96784;-89
2021/07/12 20:54:37;;;;;;;;;;;;;;;26.70;52.06;100737.31;5053461;27;96623;-90
2021/07/12 20:57:07;;;;;;;;;;;;;;;26.78;52.02;100737.38;5050583;28;98955;-89
2021/07/12 21:02:18;;;;;;;;;;;;;;;26.32;53.36;100743.94;5051621;28;96563;-89
2021/07/12 21:05:01;;;;;;;;;;;;;;;26.08;54.19;100742.66;5051996;27;96681;-89